Terminal Aerodrome Forecast
Issued by NWS

Home | Current Version | Previous Version | Text Only | Print | Product List | Glossary On
Versions: 1 2 3 4 5 6 7 8 9 10 11 12 13
328
FTUS44 KBMX 261736
TAFTOI
TAF
KTOI 261736Z 2618/2718 09007KT P6SM SCT050 SCT250
     FM270200 10002KT P6SM FEW250
     FM270400 00000KT 5SM BR SCT060
     FM271000 09002KT P6SM FEW120=

USA.gov is the U.S. government's official web portal to all federal, state and local government web resources and services.